Time;durP1;ratioP1;P1;durP2;ratioP2;P2;SDS_P1;SDS_P2;PMS_P1;PMS_P2;Temp;Humidity;BMP_temperature;BMP_pressure;BME280_temperature;BME280_humidity;BME280_pressure;Samples;Min_cycle;Max_cycle;Signal;HPM_P1;HPM_P2
2021/12/04 00:02:04;;;;;;;20.85;9.43;;;;;;;;;;4996731;28;20077;-82
2021/12/04 00:04:36;;;;;;;18.50;9.27;;;;;;;;;;5010128;28;20211;-82
2021/12/04 00:07:05;;;;;;;22.08;10.27;;;;;;;;;;5003957;28;20128;-82
2021/12/04 00:09:34;;;;;;;18.65;9.02;;;;;;;;;;4994773;28;20145;-82
2021/12/04 00:12:03;;;;;;;21.08;9.98;;;;;;;;;;4995090;28;20046;-82
2021/12/04 00:14:31;;;;;;;22.73;9.05;;;;;;;;;;4992793;28;20062;-82
2021/12/04 00:17:00;;;;;;;23.23;10.80;;;;;;;;;;5004957;28;20100;-82
2021/12/04 00:19:27;;;;;;;20.40;9.77;;;;;;;;;;4987817;28;20771;-82
2021/12/04 00:21:55;;;;;;;26.10;10.80;;;;;;;;;;4998169;28;20053;-82
2021/12/04 00:24:22;;;;;;;19.80;10.48;;;;;;;;;;4993965;28;20129;-82
2021/12/04 00:26:51;;;;;;;20.20;10.32;;;;;;;;;;4996352;28;20674;-82
2021/12/04 00:29:18;;;;;;;25.10;10.27;;;;;;;;;;4996931;28;20045;-82
2021/12/04 00:31:51;;;;;;;24.92;10.38;;;;;;;;;;5006366;28;20046;-82
2021/12/04 00:34:20;;;;;;;18.30;9.88;;;;;;;;;;5003413;28;20081;-82
2021/12/04 00:37:06;;;;;;;22.58;11.05;;;;;;;;;;5021981;28;20766;-81
2021/12/04 00:50:39;;;;;;;27.42;12.05;;;;;;;;;;5013134;28;20049;-83
2021/12/04 00:53:07;;;;;;;27.63;11.85;;;;;;;;;;4996283;28;20132;-83
2021/12/04 00:55:34;;;;;;;27.35;12.02;;;;;;;;;;4993281;28;20097;-83
2021/12/04 00:58:04;;;;;;;29.25;12.50;;;;;;;;;;5010044;28;20045;-83
2021/12/04 01:00:31;;;;;;;27.38;12.68;;;;;;;;;;5012042;28;20081;-83
2021/12/04 01:02:58;;;;;;;28.27;13.68;;;;;;;;;;5003639;28;20402;-84
2021/12/04 01:05:25;;;;;;;30.20;12.68;;;;;;;;;;4994386;28;20054;-83
2021/12/04 01:07:52;;;;;;;25.70;12.60;;;;;;;;;;5021024;28;20820;-83
2021/12/04 01:10:20;;;;;;;26.75;12.73;;;;;;;;;;4995448;28;20088;-83
2021/12/04 01:12:50;;;;;;;31.27;14.70;;;;;;;;;;4994802;28;20085;-83
2021/12/04 01:15:17;;;;;;;30.23;12.70;;;;;;;;;;4995572;28;20100;-83
2021/12/04 01:17:44;;;;;;;31.52;13.60;;;;;;;;;;4996457;28;20081;-83
2021/12/04 01:20:12;;;;;;;30.17;13.32;;;;;;;;;;4995074;28;20077;-83
2021/12/04 01:22:39;;;;;;;30.42;13.18;;;;;;;;;;5012901;28;20513;-83
2021/12/04 01:25:07;;;;;;;35.05;13.45;;;;;;;;;;4986591;28;20133;-83
2021/12/04 01:27:36;;;;;;;33.80;13.98;;;;;;;;;;5003384;28;20050;-82
2021/12/04 01:30:05;;;;;;;33.47;14.30;;;;;;;;;;4996278;28;20142;-82
2021/12/04 01:32:32;;;;;;;34.28;14.98;;;;;;;;;;4990839;28;20137;-83
2021/12/04 01:34:59;;;;;;;30.85;13.07;;;;;;;;;;4993145;28;20119;-83
2021/12/04 01:37:27;;;;;;;30.75;15.10;;;;;;;;;;5001608;28;20078;-83
2021/12/04 01:39:55;;;;;;;31.23;14.07;;;;;;;;;;4994653;28;20085;-83
2021/12/04 01:42:22;;;;;;;32.70;14.88;;;;;;;;;;5000656;28;20074;-83
2021/12/04 01:44:50;;;;;;;33.30;14.55;;;;;;;;;;4991681;28;20070;-83
2021/12/04 01:47:21;;;;;;;37.33;15.23;;;;;;;;;;5004245;28;20448;-84
2021/12/04 01:49:49;;;;;;;36.00;14.70;;;;;;;;;;4995324;28;20046;-83
2021/12/04 01:52:17;;;;;;;28.85;13.93;;;;;;;;;;4996060;28;20065;-83
2021/12/04 01:54:46;;;;;;;40.13;15.57;;;;;;;;;;4995025;28;20096;-83
2021/12/04 01:57:17;;;;;;;34.38;15.40;;;;;;;;;;4989943;28;20137;-83
2021/12/04 01:59:48;;;;;;;36.95;14.57;;;;;;;;;;5001864;28;20395;-83
2021/12/04 02:02:15;;;;;;;42.47;15.25;;;;;;;;;;5008411;28;20077;-83
2021/12/04 02:04:42;;;;;;;34.53;15.23;;;;;;;;;;5004897;28;20049;-83
2021/12/04 02:07:11;;;;;;;34.25;15.07;;;;;;;;;;5007321;28;20490;-83
2021/12/04 02:09:39;;;;;;;36.28;15.18;;;;;;;;;;5007087;28;20093;-84
2021/12/04 02:12:07;;;;;;;37.00;15.13;;;;;;;;;;4994782;28;20727;-83
2021/12/04 02:14:35;;;;;;;36.25;14.57;;;;;;;;;;4995120;28;20100;-84
2021/12/04 02:17:04;;;;;;;32.38;14.40;;;;;;;;;;4994878;28;20073;-83
2021/12/04 02:19:31;;;;;;;37.80;15.77;;;;;;;;;;5012551;28;20050;-83
2021/12/04 02:21:59;;;;;;;38.78;15.20;;;;;;;;;;5011783;28;20738;-84
2021/12/04 02:24:26;;;;;;;34.50;15.27;;;;;;;;;;4983497;28;20151;-84
2021/12/04 02:26:53;;;;;;;40.95;15.27;;;;;;;;;;4994859;28;20085;-84
2021/12/04 02:29:21;;;;;;;40.50;15.57;;;;;;;;;;5017351;28;20041;-84
2021/12/04 02:31:50;;;;;;;37.33;15.40;;;;;;;;;;4997014;28;20050;-84
2021/12/04 02:34:24;;;;;;;40.85;15.55;;;;;;;;;;4994013;28;20506;-84
2021/12/04 02:36:52;;;;;;;43.78;15.50;;;;;;;;;;5018910;28;20064;-85
2021/12/04 02:39:27;;;;;;;36.85;16.90;;;;;;;;;;4994823;28;20073;-84
2021/12/04 02:41:54;;;;;;;37.85;15.95;;;;;;;;;;4992205;28;20077;-84
2021/12/04 02:44:23;;;;;;;38.17;15.77;;;;;;;;;;4999156;28;20054;-84
2021/12/04 02:46:51;;;;;;;41.80;17.90;;;;;;;;;;4990099;28;20081;-83
2021/12/04 02:49:21;;;;;;;39.28;15.80;;;;;;;;;;4975073;28;20138;-84
2021/12/04 02:51:48;;;;;;;46.08;17.77;;;;;;;;;;4988335;28;20081;-84
2021/12/04 02:54:15;;;;;;;48.90;17.63;;;;;;;;;;4995121;28;20389;-84
2021/12/04 02:56:44;;;;;;;48.47;18.30;;;;;;;;;;4993652;28;20108;-84
2021/12/04 02:59:12;;;;;;;42.33;17.15;;;;;;;;;;4994542;28;20088;-83
2021/12/04 03:01:41;;;;;;;49.78;18.83;;;;;;;;;;5016714;28;20080;-84
2021/12/04 03:04:09;;;;;;;45.70;17.73;;;;;;;;;;4986913;28;20045;-84
2021/12/04 03:06:42;;;;;;;46.17;18.33;;;;;;;;;;4996653;28;20521;-84
2021/12/04 03:09:09;;;;;;;49.85;17.33;;;;;;;;;;4996510;28;20088;-84
2021/12/04 03:11:36;;;;;;;46.25;18.73;;;;;;;;;;5011342;28;20081;-84
2021/12/04 03:14:04;;;;;;;46.60;18.52;;;;;;;;;;5011548;28;20050;-84
2021/12/04 03:16:31;;;;;;;57.17;20.15;;;;;;;;;;4978584;28;20448;-84
2021/12/04 03:18:59;;;;;;;53.25;19.50;;;;;;;;;;5010042;28;20046;-84
2021/12/04 03:21:26;;;;;;;55.40;20.13;;;;;;;;;;4994043;28;20133;-84
2021/12/04 03:24:01;;;;;;;47.85;18.25;;;;;;;;;;4994229;28;20126;-84
2021/12/04 03:26:28;;;;;;;48.83;19.02;;;;;;;;;;4978570;28;20463;-84
2021/12/04 03:28:57;;;;;;;52.58;20.10;;;;;;;;;;4993847;28;20476;-85
2021/12/04 03:42:22;;;;;;;73.13;24.65;;;;;;;;;;5010344;28;20462;-83
2021/12/04 03:44:50;;;;;;;72.95;26.83;;;;;;;;;;5011286;28;20062;-84
2021/12/04 03:47:19;;;;;;;69.63;25.58;;;;;;;;;;4992323;28;20116;-84
2021/12/04 03:49:47;;;;;;;81.40;26.10;;;;;;;;;;4994169;28;20050;-83
2021/12/04 03:52:14;;;;;;;77.15;27.15;;;;;;;;;;4993156;28;21922;-84
2021/12/04 03:54:42;;;;;;;77.32;24.83;;;;;;;;;;4993884;28;20450;-84
2021/12/04 03:57:12;;;;;;;73.88;26.60;;;;;;;;;;4996228;28;20054;-84
2021/12/04 03:59:41;;;;;;;77.22;26.15;;;;;;;;;;5010376;28;20129;-84
2021/12/04 04:02:09;;;;;;;71.78;25.10;;;;;;;;;;4992707;28;20054;-83
2021/12/04 04:04:37;;;;;;;66.18;24.50;;;;;;;;;;5014792;28;20633;-84
2021/12/04 04:07:05;;;;;;;70.65;24.38;;;;;;;;;;5020196;28;20121;-84
2021/12/04 04:09:33;;;;;;;57.95;21.67;;;;;;;;;;4995572;28;20077;-78
2021/12/04 04:12:00;;;;;;;67.13;22.40;;;;;;;;;;4999750;28;20442;-78
2021/12/04 04:14:27;;;;;;;63.80;22.52;;;;;;;;;;4996386;28;20082;-78
2021/12/04 04:16:56;;;;;;;57.65;21.65;;;;;;;;;;4995484;28;20068;-78
2021/12/04 04:19:26;;;;;;;65.80;21.45;;;;;;;;;;5014390;28;20160;-78
2021/12/04 04:21:56;;;;;;;58.03;20.63;;;;;;;;;;4994846;28;20449;-78
2021/12/04 04:24:24;;;;;;;61.92;23.00;;;;;;;;;;5010933;28;20145;-78
2021/12/04 04:26:52;;;;;;;62.70;22.80;;;;;;;;;;4992836;28;20144;-78
2021/12/04 04:29:19;;;;;;;63.15;22.85;;;;;;;;;;5001329;28;20532;-78
2021/12/04 04:31:50;;;;;;;67.90;22.52;;;;;;;;;;5013436;28;20132;-78
2021/12/04 04:34:24;;;;;;;70.65;21.83;;;;;;;;;;4995243;28;20129;-78
2021/12/04 05:12:53;;;;;;;65.28;22.20;;;;;;;;;;5013223;28;20658;-84
2021/12/04 05:20:38;;;;;;;64.65;22.33;;;;;;;;;;5013365;28;20092;-84
2021/12/04 05:23:10;;;;;;;64.57;21.92;;;;;;;;;;4994896;28;20076;-84
2021/12/04 05:25:37;;;;;;;64.75;21.88;;;;;;;;;;4995885;28;20046;-85
2021/12/04 05:28:05;;;;;;;69.63;22.42;;;;;;;;;;4995184;28;20068;-84
2021/12/04 05:30:33;;;;;;;69.25;22.48;;;;;;;;;;5015084;28;20080;-84
2021/12/04 05:33:01;;;;;;;73.05;23.27;;;;;;;;;;4996314;28;20852;-84
2021/12/04 05:35:28;;;;;;;75.00;22.63;;;;;;;;;;4997847;28;20157;-85
2021/12/04 05:37:57;;;;;;;74.18;22.90;;;;;;;;;;5004573;28;20077;-84
2021/12/04 05:40:24;;;;;;;65.00;23.15;;;;;;;;;;5012348;28;20410;-84
2021/12/04 05:42:59;;;;;;;55.20;21.42;;;;;;;;;;4992745;28;20050;-84
2021/12/04 05:45:27;;;;;;;73.95;22.58;;;;;;;;;;4995918;28;20286;-79
2021/12/04 05:48:02;;;;;;;74.00;21.77;;;;;;;;;;4993397;28;20050;-79
2021/12/04 05:53:42;;;;;;;68.70;22.77;;;;;;;;;;5006502;28;20130;-79
2021/12/04 05:56:09;;;;;;;71.72;22.33;;;;;;;;;;5009987;28;20447;-78
2021/12/04 05:58:36;;;;;;;64.20;21.85;;;;;;;;;;5020043;28;20076;-79
2021/12/04 06:01:05;;;;;;;74.03;22.60;;;;;;;;;;4995975;28;20085;-78
2021/12/04 06:03:33;;;;;;;69.32;23.25;;;;;;;;;;5006862;28;20046;-79
2021/12/04 06:06:00;;;;;;;80.50;23.05;;;;;;;;;;4993814;28;20073;-79
2021/12/04 06:08:27;;;;;;;76.50;22.63;;;;;;;;;;5017319;28;20686;-79
2021/12/04 06:10:57;;;;;;;74.57;23.13;;;;;;;;;;4993680;28;20050;-79
2021/12/04 06:13:25;;;;;;;72.95;22.67;;;;;;;;;;5010975;28;20479;-79
2021/12/04 06:15:52;;;;;;;71.38;22.75;;;;;;;;;;4994087;28;20109;-79
2021/12/04 06:18:21;;;;;;;78.40;23.52;;;;;;;;;;4995785;28;20517;-78
2021/12/04 06:23:36;;;;;;;71.63;23.25;;;;;;;;;;5006770;28;20124;-78
2021/12/04 06:26:06;;;;;;;89.72;26.67;;;;;;;;;;4992222;28;20067;-79
2021/12/04 06:28:33;;;;;;;77.55;24.45;;;;;;;;;;4994201;28;20131;-79
2021/12/04 06:31:00;;;;;;;73.95;23.80;;;;;;;;;;4990582;28;20154;-78
2021/12/04 06:33:27;;;;;;;84.20;23.40;;;;;;;;;;4995873;28;20042;-78
2021/12/04 06:35:55;;;;;;;81.85;24.08;;;;;;;;;;5001341;28;20134;-78
2021/12/04 06:38:22;;;;;;;80.10;23.58;;;;;;;;;;5000782;28;20053;-78
2021/12/04 06:40:50;;;;;;;86.75;24.67;;;;;;;;;;4989869;28;20046;-78
2021/12/04 06:43:18;;;;;;;83.13;24.30;;;;;;;;;;4994015;28;20129;-79
2021/12/04 06:45:50;;;;;;;71.40;22.52;;;;;;;;;;4989913;28;20046;-77
2021/12/04 06:48:21;;;;;;;77.82;22.45;;;;;;;;;;5008110;28;20060;-78
2021/12/04 06:56:02;;;;;;;74.30;23.92;;;;;;;;;;5012798;28;20507;-80
2021/12/04 06:58:29;;;;;;;80.30;24.80;;;;;;;;;;4995728;28;20107;-82
2021/12/04 07:00:57;;;;;;;81.95;24.35;;;;;;;;;;5012281;28;20057;-80
2021/12/04 07:03:25;;;;;;;83.18;23.48;;;;;;;;;;4993931;28;20057;-79
2021/12/04 07:05:52;;;;;;;94.10;24.38;;;;;;;;;;5000189;28;20184;-76
2021/12/04 07:08:19;;;;;;;83.25;23.80;;;;;;;;;;5007755;28;20070;-78
2021/12/04 07:10:46;;;;;;;85.95;23.40;;;;;;;;;;5007755;28;20531;-76
2021/12/04 07:13:14;;;;;;;79.88;23.25;;;;;;;;;;4990422;28;20150;-80
2021/12/04 07:15:44;;;;;;;72.95;21.17;;;;;;;;;;4995743;28;20084;-80
2021/12/04 07:18:12;;;;;;;79.05;22.58;;;;;;;;;;5010672;28;20061;-79
2021/12/04 07:20:40;;;;;;;70.30;23.05;;;;;;;;;;4994317;28;20045;-79
2021/12/04 07:23:10;;;;;;;72.18;22.98;;;;;;;;;;5010767;28;20050;-77
2021/12/04 07:25:38;;;;;;;77.95;21.83;;;;;;;;;;5006117;28;20084;-76
2021/12/04 07:28:05;;;;;;;86.63;22.50;;;;;;;;;;4986391;28;20827;-75
2021/12/04 07:30:32;;;;;;;74.15;22.27;;;;;;;;;;5008578;28;20045;-80
2021/12/04 07:32:59;;;;;;;83.80;22.30;;;;;;;;;;4986104;28;20061;-81
2021/12/04 07:35:27;;;;;;;81.65;22.35;;;;;;;;;;4987666;28;20756;-75
2021/12/04 07:37:54;;;;;;;74.78;20.98;;;;;;;;;;5094516;23;20053;-75
2021/12/04 07:40:22;;;;;;;86.80;22.95;;;;;;;;;;4983856;28;20847;-76
2021/12/04 07:42:52;;;;;;;84.18;22.58;;;;;;;;;;4985262;28;20664;-77
2021/12/04 07:45:19;;;;;;;81.53;22.20;;;;;;;;;;4986109;28;20081;-77
2021/12/04 07:47:47;;;;;;;81.65;23.08;;;;;;;;;;4967945;28;20078;-77
2021/12/04 07:50:15;;;;;;;82.90;21.65;;;;;;;;;;4983607;28;20129;-76
2021/12/04 07:52:42;;;;;;;80.13;22.23;;;;;;;;;;4986767;28;20148;-77
2021/12/04 07:55:10;;;;;;;87.60;23.08;;;;;;;;;;4988293;28;20077;-77
2021/12/04 07:57:37;;;;;;;71.97;21.23;;;;;;;;;;4985960;28;20110;-78
2021/12/04 08:00:07;;;;;;;88.15;23.90;;;;;;;;;;4986127;28;20050;-78
2021/12/04 08:02:35;;;;;;;92.75;22.10;;;;;;;;;;4986774;28;20046;-78
2021/12/04 08:05:02;;;;;;;90.40;23.33;;;;;;;;;;4987288;28;20066;-78
2021/12/04 08:07:30;;;;;;;85.75;23.92;;;;;;;;;;4987560;28;20054;-78
2021/12/04 08:09:57;;;;;;;93.95;25.77;;;;;;;;;;4973465;28;20070;-78
2021/12/04 08:12:24;;;;;;;82.88;22.35;;;;;;;;;;4988120;28;20157;-78
2021/12/04 08:14:53;;;;;;;89.80;22.70;;;;;;;;;;4970853;28;20078;-78
2021/12/04 08:17:21;;;;;;;80.93;23.77;;;;;;;;;;4987575;28;20444;-78
2021/12/04 08:19:48;;;;;;;87.03;22.38;;;;;;;;;;4986388;28;20464;-78
2021/12/04 08:22:15;;;;;;;74.25;21.58;;;;;;;;;;4988913;28;20654;-77
2021/12/04 08:24:45;;;;;;;66.85;22.23;;;;;;;;;;4988420;28;20579;-77
2021/12/04 08:27:12;;;;;;;90.20;23.65;;;;;;;;;;4988997;28;20436;-77
2021/12/04 08:29:39;;;;;;;87.13;23.15;;;;;;;;;;4989149;28;20078;-78
2021/12/04 08:32:07;;;;;;;93.45;24.75;;;;;;;;;;4983496;28;20141;-78
2021/12/04 08:34:35;;;;;;;96.68;25.00;;;;;;;;;;4986238;28;20144;-78
2021/12/04 08:37:03;;;;;;;97.05;23.58;;;;;;;;;;4991821;28;20059;-78
2021/12/04 08:39:31;;;;;;;93.88;23.85;;;;;;;;;;4990573;28;20504;-77
2021/12/04 08:41:59;;;;;;;78.93;23.63;;;;;;;;;;4980635;28;20129;-78
2021/12/04 08:44:26;;;;;;;95.32;24.90;;;;;;;;;;4982635;28;20141;-78
2021/12/04 08:46:53;;;;;;;89.65;22.70;;;;;;;;;;4986104;28;20472;-78
2021/12/04 08:49:21;;;;;;;99.82;24.23;;;;;;;;;;4987873;28;20562;-78
2021/12/04 08:51:48;;;;;;;86.15;23.42;;;;;;;;;;4967559;28;20120;-77
2021/12/04 08:54:15;;;;;;;109.43;25.10;;;;;;;;;;4983825;28;20130;-78
2021/12/04 08:56:43;;;;;;;104.35;25.05;;;;;;;;;;4983847;28;20453;-78
2021/12/04 08:59:10;;;;;;;109.97;24.67;;;;;;;;;;4990163;28;20129;-78
2021/12/04 09:01:39;;;;;;;96.93;24.23;;;;;;;;;;4987697;28;20066;-77
2021/12/04 09:04:09;;;;;;;112.05;23.95;;;;;;;;;;4972638;28;20057;-78
2021/12/04 09:06:37;;;;;;;102.97;25.50;;;;;;;;;;4989965;28;20138;-78
2021/12/04 09:09:05;;;;;;;109.22;24.98;;;;;;;;;;4993250;28;20084;-79
2021/12/04 09:11:35;;;;;;;113.47;26.52;;;;;;;;;;4990198;28;20125;-79
2021/12/04 09:14:03;;;;;;;114.68;26.20;;;;;;;;;;4991117;28;20109;-78
2021/12/04 09:16:30;;;;;;;103.63;24.77;;;;;;;;;;4983856;28;20205;-79
2021/12/04 09:18:57;;;;;;;111.03;26.00;;;;;;;;;;4993170;28;20055;-80
2021/12/04 09:21:27;;;;;;;96.13;23.33;;;;;;;;;;4986995;28;20608;-79
2021/12/04 09:24:09;;;;;;;112.50;26.15;;;;;;;;;;4986897;28;20110;-79
2021/12/04 10:00:02;;;;;;;89.10;24.30;;;;;;;;;;4989832;28;20476;-79
2021/12/04 10:19:13;;;;;;;81.47;23.25;;;;;;;;;;4992934;28;20058;-80
2021/12/04 10:21:49;;;;;;;80.50;23.40;;;;;;;;;;4992679;28;20050;-80
2021/12/04 10:24:47;;;;;;;87.70;25.23;;;;;;;;;;4976045;28;20080;-80
2021/12/04 10:33:22;;;;;;;66.60;21.48;;;;;;;;;;4992727;28;20062;-79
2021/12/04 10:35:50;;;;;;;70.57;21.98;;;;;;;;;;5000617;28;20042;-79
2021/12/04 10:38:18;;;;;;;67.68;21.90;;;;;;;;;;4979851;28;20514;-79
2021/12/04 10:40:48;;;;;;;69.70;21.63;;;;;;;;;;5000377;28;20125;-79
2021/12/04 10:43:17;;;;;;;77.28;23.10;;;;;;;;;;4992469;28;20509;-79
2021/12/04 10:45:51;;;;;;;71.30;22.30;;;;;;;;;;4992795;28;20137;-79
2021/12/04 10:48:22;;;;;;;71.65;22.63;;;;;;;;;;4975357;28;20054;-79
2021/12/04 10:53:30;;;;;;;73.55;21.42;;;;;;;;;;4992677;28;20641;-79
2021/12/04 11:04:39;;;;;;;59.47;19.73;;;;;;;;;;4992250;28;20046;-79
2021/12/04 11:19:26;;;;;;;53.63;18.83;;;;;;;;;;4990417;28;20145;-79
2021/12/04 11:43:03;;;;;;;36.20;13.75;;;;;;;;;;4990475;28;20130;-79
2021/12/04 11:46:03;;;;;;;37.58;12.55;;;;;;;;;;4990535;28;20046;-79
2021/12/04 11:48:31;;;;;;;34.63;12.80;;;;;;;;;;4970675;28;20081;-79
2021/12/04 11:50:59;;;;;;;32.30;12.32;;;;;;;;;;5090681;22;20120;-80
2021/12/04 11:53:27;;;;;;;38.03;12.63;;;;;;;;;;4986233;28;20165;-80
2021/12/04 11:55:54;;;;;;;35.65;13.93;;;;;;;;;;4992916;28;20145;-80
2021/12/04 11:58:26;;;;;;;40.40;12.75;;;;;;;;;;4993308;28;20700;-80
2021/12/04 12:00:56;;;;;;;32.42;12.43;;;;;;;;;;4999343;28;20085;-79
2021/12/04 12:03:26;;;;;;;30.70;12.40;;;;;;;;;;4991977;28;20046;-79
2021/12/04 12:05:54;;;;;;;35.90;11.50;;;;;;;;;;4977328;28;20073;-80
2021/12/04 12:08:35;;;;;;;33.13;11.18;;;;;;;;;;4995610;28;20125;-80
2021/12/04 12:11:05;;;;;;;38.00;13.07;;;;;;;;;;4989262;28;20054;-80
2021/12/04 12:13:34;;;;;;;38.60;13.82;;;;;;;;;;4990654;28;20058;-80
2021/12/04 12:16:08;;;;;;;40.58;12.57;;;;;;;;;;4990990;28;20836;-80
2021/12/04 12:18:59;;;;;;;37.35;15.18;;;;;;;;;;4991513;28;20100;-80
2021/12/04 12:21:53;;;;;;;37.35;14.35;;;;;;;;;;4961277;28;20093;-80
2021/12/04 12:38:34;;;;;;;35.83;13.90;;;;;;;;;;4991551;28;20043;-79
2021/12/04 12:41:20;;;;;;;34.72;13.23;;;;;;;;;;4990973;28;20511;-79
2021/12/04 12:43:47;;;;;;;36.58;13.00;;;;;;;;;;4976053;28;20560;-79
2021/12/04 12:46:14;;;;;;;39.90;14.10;;;;;;;;;;4985735;28;20685;-79
2021/12/04 12:48:52;;;;;;;41.08;14.00;;;;;;;;;;4994305;28;20519;-80
2021/12/04 12:51:24;;;;;;;40.50;13.32;;;;;;;;;;4987495;28;20125;-80
2021/12/04 12:53:51;;;;;;;42.75;14.70;;;;;;;;;;4986267;28;20452;-80
2021/12/04 12:56:21;;;;;;;44.67;14.82;;;;;;;;;;4995099;28;20145;-80
2021/12/04 13:12:49;;;;;;;39.25;13.50;;;;;;;;;;4979702;28;20050;-79
2021/12/04 13:15:29;;;;;;;40.67;14.50;;;;;;;;;;4994542;28;20722;-80
2021/12/04 13:17:56;;;;;;;31.65;12.88;;;;;;;;;;4993343;28;20085;-79
2021/12/04 13:20:23;;;;;;;32.60;12.95;;;;;;;;;;4972463;28;20057;-80
2021/12/04 13:22:50;;;;;;;42.35;13.88;;;;;;;;;;5001174;28;20097;-80
2021/12/04 13:25:25;;;;;;;36.50;12.93;;;;;;;;;;5001440;28;20077;-79
2021/12/04 13:30:20;;;;;;;35.10;13.68;;;;;;;;;;5009483;28;20054;-80
2021/12/04 13:32:47;;;;;;;38.58;13.93;;;;;;;;;;4993738;28;20125;-80
2021/12/04 13:35:23;;;;;;;34.75;14.18;;;;;;;;;;4991940;28;20046;-80
2021/12/04 13:37:56;;;;;;;38.63;13.93;;;;;;;;;;4987437;28;20141;-80
2021/12/04 13:40:23;;;;;;;40.25;14.43;;;;;;;;;;4979341;28;20478;-79
2021/12/04 13:42:50;;;;;;;45.28;14.30;;;;;;;;;;4988364;28;20117;-80
2021/12/04 13:45:18;;;;;;;39.92;14.02;;;;;;;;;;5000924;28;20046;-80
2021/12/04 13:47:53;;;;;;;43.78;15.30;;;;;;;;;;4990138;28;20133;-80
2021/12/04 13:52:59;;;;;;;36.67;13.60;;;;;;;;;;4999168;28;20160;-80
2021/12/04 13:55:27;;;;;;;40.40;13.20;;;;;;;;;;4998157;28;20497;-80
2021/12/04 13:57:57;;;;;;;35.65;13.18;;;;;;;;;;4980799;28;20081;-80
2021/12/04 14:00:24;;;;;;;44.67;15.43;;;;;;;;;;5004373;28;20659;-80
2021/12/04 14:02:51;;;;;;;40.67;12.95;;;;;;;;;;4991845;28;20798;-80
2021/12/04 14:05:21;;;;;;;56.28;24.40;;;;;;;;;;5002013;28;20078;-80
2021/12/04 14:07:53;;;;;;;48.42;18.13;;;;;;;;;;4989349;28;20487;-80
2021/12/04 14:10:22;;;;;;;52.92;19.60;;;;;;;;;;4977826;28;20129;-80
2021/12/04 14:12:49;;;;;;;51.92;17.55;;;;;;;;;;4990065;28;20097;-80
2021/12/04 14:15:18;;;;;;;55.53;21.60;;;;;;;;;;4993152;28;20074;-80
2021/12/04 14:17:45;;;;;;;47.63;16.35;;;;;;;;;;4976298;28;20042;-79
2021/12/04 14:20:14;;;;;;;61.53;22.45;;;;;;;;;;4975606;28;20554;-80
2021/12/04 14:22:46;;;;;;;51.97;19.73;;;;;;;;;;4991788;28;20077;-80
2021/12/04 14:25:14;;;;;;;51.88;18.33;;;;;;;;;;4978833;28;20050;-80
2021/12/04 14:27:41;;;;;;;45.85;17.52;;;;;;;;;;4991589;28;20097;-80
2021/12/04 14:30:08;;;;;;;43.72;14.68;;;;;;;;;;5000210;28;20047;-80
2021/12/04 14:32:37;;;;;;;43.15;16.77;;;;;;;;;;4986764;28;20117;-80
2021/12/04 14:35:16;;;;;;;43.55;18.23;;;;;;;;;;4979337;28;20085;-79
2021/12/04 14:37:50;;;;;;;58.67;20.07;;;;;;;;;;4985530;28;20562;-80
2021/12/04 14:40:22;;;;;;;49.78;18.08;;;;;;;;;;4991498;28;20447;-79
2021/12/04 14:42:52;;;;;;;38.35;15.45;;;;;;;;;;4992687;28;20057;-79
2021/12/04 14:45:23;;;;;;;43.00;15.43;;;;;;;;;;4992342;28;20809;-80
2021/12/04 14:48:06;;;;;;;31.90;12.80;;;;;;;;;;4992383;28;20146;-80
2021/12/04 14:50:35;;;;;;;34.88;12.45;;;;;;;;;;4987271;28;20557;-79
2021/12/04 14:53:03;;;;;;;38.50;13.93;;;;;;;;;;4976938;28;20804;-79
2021/12/04 14:55:35;;;;;;;37.97;14.40;;;;;;;;;;4992740;28;20137;-80
2021/12/04 14:58:06;;;;;;;48.08;16.10;;;;;;;;;;4974695;28;20104;-80
2021/12/04 15:00:36;;;;;;;53.95;18.35;;;;;;;;;;4983557;28;20089;-80
2021/12/04 15:03:07;;;;;;;45.33;15.50;;;;;;;;;;4989192;28;20066;-80
2021/12/04 15:05:39;;;;;;;40.40;14.13;;;;;;;;;;5002785;28;20112;-80
2021/12/04 15:08:10;;;;;;;42.45;15.18;;;;;;;;;;4982362;28;20561;-80
2021/12/04 15:10:42;;;;;;;66.18;22.02;;;;;;;;;;4988934;28;20085;-80
2021/12/04 15:13:17;;;;;;;78.55;26.92;;;;;;;;;;4978472;28;20132;-80
2021/12/04 15:15:45;;;;;;;52.70;20.45;;;;;;;;;;4974012;28;20077;-80
2021/12/04 15:18:14;;;;;;;41.55;17.00;;;;;;;;;;4966586;28;20090;-80
2021/12/04 15:20:53;;;;;;;35.13;15.10;;;;;;;;;;4972876;28;20055;-80
2021/12/04 15:23:23;;;;;;;41.63;14.32;;;;;;;;;;4997890;28;20073;-80
2021/12/04 15:25:55;;;;;;;34.10;16.58;;;;;;;;;;4989254;28;20039;-80
2021/12/04 15:28:24;;;;;;;44.58;17.55;;;;;;;;;;4991345;28;20077;-80
2021/12/04 15:30:53;;;;;;;41.70;16.05;;;;;;;;;;4987988;28;20082;-80
2021/12/04 15:33:22;;;;;;;34.65;13.32;;;;;;;;;;4988122;28;20073;-80
2021/12/04 15:35:50;;;;;;;37.17;14.25;;;;;;;;;;4998072;28;20046;-80
2021/12/04 15:38:27;;;;;;;57.92;18.30;;;;;;;;;;4981787;28;20056;-83
2021/12/04 15:54:15;;;;;;;50.85;18.33;;;;;;;;;;5051612;28;20076;-76
2021/12/04 15:56:46;;;;;;;64.10;28.52;;;;;;;;;;5052422;28;20048;-78
2021/12/04 15:59:19;;;;;;;47.55;20.67;;;;;;;;;;5055317;28;20052;-81
2021/12/04 16:01:53;;;;;;;69.00;29.08;;;;;;;;;;5051608;28;20044;-81
2021/12/04 16:04:24;;;;;;;39.45;17.33;;;;;;;;;;5050183;28;20045;-81
2021/12/04 16:06:52;;;;;;;42.70;17.77;;;;;;;;;;5032099;28;20136;-82
2021/12/04 16:09:27;;;;;;;37.50;17.05;;;;;;;;;;5028049;28;20130;-78
2021/12/04 16:12:05;;;;;;;40.58;16.38;;;;;;;;;;5041444;28;20522;-78
2021/12/04 16:14:33;;;;;;;40.08;17.23;;;;;;;;;;5033818;28;20084;-78
2021/12/04 16:17:03;;;;;;;44.67;18.75;;;;;;;;;;5044939;28;20746;-78
2021/12/04 16:19:32;;;;;;;37.05;15.32;;;;;;;;;;5047020;28;20134;-78
2021/12/04 16:22:03;;;;;;;42.00;17.40;;;;;;;;;;5031209;28;20088;-78
2021/12/04 16:24:32;;;;;;;48.67;19.77;;;;;;;;;;5032738;28;20122;-78
2021/12/04 16:27:26;;;;;;;35.63;16.70;;;;;;;;;;5030383;28;20159;-78
2021/12/04 16:29:53;;;;;;;39.20;16.05;;;;;;;;;;5050836;28;20072;-78
2021/12/04 16:35:24;;;;;;;33.85;13.85;;;;;;;;;;5048322;28;20084;-78
2021/12/04 16:37:49;;;;;;;47.38;20.08;;;;;;;;;;5044494;28;20052;-78
2021/12/04 16:40:19;;;;;;;44.80;19.98;;;;;;;;;;5032021;28;20136;-78
2021/12/04 16:42:52;;;;;;;45.17;19.10;;;;;;;;;;5023024;28;20042;-79
2021/12/04 16:45:22;;;;;;;32.15;14.15;;;;;;;;;;5038455;28;20463;-76
2021/12/04 16:47:52;;;;;;;32.35;15.63;;;;;;;;;;5021195;28;20049;-76
2021/12/04 16:50:22;;;;;;;33.35;13.38;;;;;;;;;;5020228;28;20136;-77
2021/12/04 16:56:04;;;;;;;39.78;13.45;;;;;;;;;;5046697;28;20161;-76
2021/12/04 16:58:32;;;;;;;32.95;12.95;;;;;;;;;;5047378;28;20107;-77
2021/12/04 17:01:00;;;;;;;35.97;13.40;;;;;;;;;;5034828;28;20171;-77
2021/12/04 17:03:28;;;;;;;34.58;12.85;;;;;;;;;;5049403;28;20041;-77
2021/12/04 17:05:56;;;;;;;31.58;12.00;;;;;;;;;;5025643;28;20052;-77
2021/12/04 17:08:24;;;;;;;30.05;11.52;;;;;;;;;;5030514;28;20518;-77
2021/12/04 17:10:52;;;;;;;28.92;11.68;;;;;;;;;;5040254;28;20127;-77
2021/12/04 17:13:19;;;;;;;33.88;12.40;;;;;;;;;;5028692;28;20585;-77
2021/12/04 17:15:48;;;;;;;29.88;11.98;;;;;;;;;;5031326;28;20137;-77
2021/12/04 17:18:16;;;;;;;22.90;11.00;;;;;;;;;;5027488;28;20150;-77
2021/12/04 17:20:44;;;;;;;29.85;12.30;;;;;;;;;;5044519;28;20080;-76
2021/12/04 17:23:12;;;;;;;24.60;10.85;;;;;;;;;;5020415;28;20085;-76
2021/12/04 17:25:40;;;;;;;24.42;10.85;;;;;;;;;;5034047;28;20045;-79
2021/12/04 17:28:09;;;;;;;25.05;11.25;;;;;;;;;;5043367;28;20053;-78
2021/12/04 17:30:37;;;;;;;19.42;9.13;;;;;;;;;;5028530;28;20092;-78
2021/12/04 17:33:05;;;;;;;21.65;10.27;;;;;;;;;;5022494;28;20055;-78
2021/12/04 17:35:34;;;;;;;21.15;9.70;;;;;;;;;;5027803;28;20096;-77
2021/12/04 17:38:03;;;;;;;31.58;13.50;;;;;;;;;;5037371;28;20064;-78
2021/12/04 17:40:33;;;;;;;34.42;15.07;;;;;;;;;;5037341;28;20803;-78
2021/12/04 17:43:01;;;;;;;37.38;15.88;;;;;;;;;;5028019;28;20140;-80
2021/12/04 17:45:29;;;;;;;38.00;18.30;;;;;;;;;;5032952;28;20133;-82
2021/12/04 17:47:58;;;;;;;38.92;16.58;;;;;;;;;;5034840;28;20084;-82
2021/12/04 17:50:27;;;;;;;29.63;13.48;;;;;;;;;;5032069;28;20127;-78
2021/12/04 17:53:01;;;;;;;35.38;16.30;;;;;;;;;;5032821;28;20072;-81
2021/12/04 17:55:28;;;;;;;34.22;15.52;;;;;;;;;;5052493;28;20692;-81
2021/12/04 17:57:55;;;;;;;40.65;19.27;;;;;;;;;;5030023;28;20144;-79
2021/12/04 18:00:33;;;;;;;31.80;14.10;;;;;;;;;;5050479;28;20437;-78
2021/12/04 18:03:02;;;;;;;30.70;14.98;;;;;;;;;;5027545;28;20099;-75
2021/12/04 18:05:29;;;;;;;30.90;14.90;;;;;;;;;;5037257;28;20040;-79
2021/12/04 18:10:37;;;;;;;44.08;19.17;;;;;;;;;;4930551;28;20075;-78
2021/12/04 18:13:06;;;;;;;42.55;17.60;;;;;;;;;;4942881;28;20051;-76
2021/12/04 18:15:37;;;;;;;35.70;16.10;;;;;;;;;;4944860;29;20123;-75
2021/12/04 18:18:04;;;;;;;27.40;12.15;;;;;;;;;;4928285;29;20087;-75
2021/12/04 18:20:31;;;;;;;29.40;13.00;;;;;;;;;;4931107;29;20122;-77